Time;durP1;ratioP1;P1;durP2;ratioP2;P2;SDS_P1;SDS_P2;PMS_P1;PMS_P2;Temp;Humidity;BMP_temperature;BMP_pressure;BME280_temperature;BME280_humidity;BME280_pressure;Samples;Min_cycle;Max_cycle;Signal;HPM_P1;HPM_P2
2022/07/30 00:02:13;;;;;;;10.32;7.88;;;18.00;99.90;;;;;;4856287;29;20041;-85
2022/07/30 00:04:38;;;;;;;12.25;8.18;;;18.00;99.90;;;;;;4860452;29;20105;-85
2022/07/30 00:07:04;;;;;;;11.98;8.13;;;18.00;99.90;;;;;;4844762;29;20048;-85
2022/07/30 00:09:30;;;;;;;13.02;8.07;;;18.00;99.90;;;;;;4834297;29;20042;-85
2022/07/30 00:11:55;;;;;;;11.38;7.40;;;18.00;99.90;;;;;;4855903;29;20487;-85
2022/07/30 00:14:21;;;;;;;12.05;8.25;;;18.00;99.90;;;;;;4844472;29;20042;-85
2022/07/30 00:16:47;;;;;;;10.13;7.47;;;17.90;99.90;;;;;;4846710;29;20049;-85
2022/07/30 00:19:13;;;;;;;11.27;7.35;;;17.90;99.90;;;;;;4857477;29;20054;-85
2022/07/30 00:21:38;;;;;;;11.07;8.20;;;17.90;99.90;;;;;;4850739;29;20498;-85
2022/07/30 00:24:05;;;;;;;11.25;8.15;;;17.90;99.90;;;;;;4860786;29;20042;-85
2022/07/30 00:26:31;;;;;;;11.18;8.45;;;17.80;99.90;;;;;;4876078;29;20102;-84
2022/07/30 00:28:57;;;;;;;14.07;9.32;;;17.80;99.90;;;;;;4860625;29;20049;-85
2022/07/30 00:31:22;;;;;;;13.23;9.40;;;17.80;99.90;;;;;;4845351;29;20133;-85
2022/07/30 00:33:48;;;;;;;11.40;8.88;;;17.80;99.90;;;;;;4856458;29;20049;-85
2022/07/30 00:36:14;;;;;;;14.07;8.90;;;17.80;99.90;;;;;;4855254;29;20045;-85
2022/07/30 00:38:39;;;;;;;10.25;8.70;;;17.80;99.90;;;;;;4866318;29;20061;-84
2022/07/30 00:41:05;;;;;;;13.25;9.35;;;17.70;99.90;;;;;;4857554;29;20072;-84
2022/07/30 00:43:31;;;;;;;11.32;9.35;;;17.70;99.90;;;;;;4877893;29;20048;-84
2022/07/30 00:45:56;;;;;;;12.20;9.50;;;17.70;99.90;;;;;;4874987;29;20514;-85
2022/07/30 00:48:22;;;;;;;11.98;9.77;;;17.70;99.90;;;;;;4859599;29;20167;-85
2022/07/30 00:50:47;;;;;;;14.05;10.30;;;17.60;99.90;;;;;;4860486;29;20053;-85
2022/07/30 00:53:13;;;;;;;11.60;9.48;;;17.60;99.90;;;;;;4859775;29;20068;-86
2022/07/30 00:55:39;;;;;;;13.13;8.77;;;17.60;99.90;;;;;;4860100;29;20045;-84
2022/07/30 00:58:04;;;;;;;15.50;9.60;;;17.50;99.90;;;;;;4857379;29;20494;-85
2022/07/30 01:00:30;;;;;;;12.07;9.65;;;17.50;99.90;;;;;;4853441;29;20042;-85
2022/07/30 01:02:56;;;;;;;13.38;9.73;;;17.50;99.90;;;;;;4851635;29;20068;-85
2022/07/30 01:05:21;;;;;;;17.05;9.85;;;17.50;99.90;;;;;;4833048;29;20135;-85
2022/07/30 01:07:47;;;;;;;12.57;10.02;;;17.50;99.90;;;;;;4849343;29;20042;-85
2022/07/30 01:10:14;;;;;;;14.63;10.75;;;17.50;99.90;;;;;;4838570;29;20138;-84
2022/07/30 01:12:42;;;;;;;15.55;11.35;;;17.30;99.90;;;;;;4837082;29;20443;-84
2022/07/30 01:15:09;;;;;;;15.02;11.00;;;17.40;99.90;;;;;;4851524;29;20049;-84
2022/07/30 01:17:35;;;;;;;11.98;10.57;;;17.40;99.90;;;;;;4837346;29;20452;-85
2022/07/30 01:20:14;;;;;;;14.95;10.68;;;17.40;99.90;;;;;;4844325;29;20052;-85
2022/07/30 01:23:11;;;;;;;13.80;9.88;;;17.30;99.90;;;;;;4859073;29;20102;-85
2022/07/30 01:25:54;;;;;;;10.93;9.18;;;17.30;99.90;;;;;;4857540;29;20524;-85
2022/07/30 01:28:26;;;;;;;12.40;9.80;;;17.30;99.90;;;;;;4874807;29;20050;-85
2022/07/30 01:30:53;;;;;;;11.27;9.48;;;17.30;99.90;;;;;;4862868;29;20045;-85
2022/07/30 01:33:21;;;;;;;15.63;10.30;;;17.30;99.90;;;;;;4844392;29;20064;-85
2022/07/30 01:35:49;;;;;;;12.85;10.57;;;17.30;99.90;;;;;;4854204;29;20054;-85
2022/07/30 01:38:20;;;;;;;13.52;10.02;;;17.30;99.90;;;;;;4876193;29;20466;-85
2022/07/30 01:40:48;;;;;;;12.75;9.77;;;17.20;99.90;;;;;;4878152;29;20064;-86
2022/07/30 01:43:16;;;;;;;11.48;9.60;;;17.20;99.90;;;;;;4855572;29;20048;-85
2022/07/30 01:45:43;;;;;;;14.05;10.50;;;17.20;99.90;;;;;;4847488;29;20060;-86
2022/07/30 01:48:11;;;;;;;12.45;10.02;;;17.10;99.90;;;;;;4860347;29;20130;-85
2022/07/30 01:50:41;;;;;;;13.75;10.18;;;17.10;99.90;;;;;;4862995;29;20474;-85
2022/07/30 01:53:07;;;;;;;14.25;10.25;;;17.00;99.90;;;;;;4862928;29;20097;-85
2022/07/30 01:55:39;;;;;;;15.55;11.15;;;17.10;99.90;;;;;;4862010;29;20124;-85
2022/07/30 01:58:06;;;;;;;18.05;9.98;;;17.00;99.90;;;;;;4837173;29;20094;-84
2022/07/30 02:00:36;;;;;;;13.57;10.63;;;17.00;99.90;;;;;;4851799;29;20042;-85
2022/07/30 02:03:04;;;;;;;14.82;11.10;;;17.00;99.90;;;;;;4859405;29;20093;-85
2022/07/30 02:05:33;;;;;;;15.73;11.30;;;17.00;99.90;;;;;;4851869;29;20038;-85
2022/07/30 02:08:23;;;;;;;15.38;10.95;;;17.00;99.90;;;;;;4877388;29;20053;-85
2022/07/30 02:10:59;;;;;;;14.48;9.77;;;17.00;99.90;;;;;;4860728;29;20084;-85
2022/07/30 02:13:28;;;;;;;42.60;11.93;;;17.00;99.90;;;;;;4859885;29;20072;-85
2022/07/30 02:16:08;;;;;;;13.35;10.82;;;17.00;99.90;;;;;;4861562;29;20110;-85
2022/07/30 02:18:55;;;;;;;13.57;11.40;;;17.00;99.90;;;;;;4841920;29;20112;-85
2022/07/30 02:21:23;;;;;;;14.95;11.10;;;17.00;99.90;;;;;;4855421;29;20046;-85
2022/07/30 02:23:50;;;;;;;13.10;9.45;;;17.00;99.90;;;;;;4851712;29;20089;-85
2022/07/30 02:26:23;;;;;;;16.00;9.90;;;17.00;99.90;;;;;;4861417;29;21440;-85
2022/07/30 02:28:57;;;;;;;20.02;10.07;;;17.00;99.90;;;;;;4862931;29;20438;-85
2022/07/30 02:31:26;;;;;;;13.52;9.65;;;17.00;99.90;;;;;;4857502;29;20053;-85
2022/07/30 02:33:56;;;;;;;11.50;9.02;;;16.90;99.90;;;;;;4855471;29;20521;-85
2022/07/30 02:36:24;;;;;;;11.57;9.55;;;16.90;99.90;;;;;;4861911;29;20129;-85
2022/07/30 02:38:51;;;;;;;11.68;9.38;;;16.90;99.90;;;;;;4868173;29;20504;-85
2022/07/30 02:41:19;;;;;;;13.50;9.52;;;16.90;99.90;;;;;;4871783;29;20174;-84
2022/07/30 02:43:46;;;;;;;13.05;9.35;;;16.90;99.90;;;;;;4850324;29;20057;-85
2022/07/30 02:46:16;;;;;;;11.25;9.20;;;16.90;99.90;;;;;;4852916;29;20046;-84
2022/07/30 02:48:44;;;;;;;11.15;9.10;;;16.80;99.90;;;;;;4859170;29;20056;-85
2022/07/30 02:51:14;;;;;;;14.05;9.45;;;16.90;99.90;;;;;;4861935;29;20046;-85
2022/07/30 02:53:42;;;;;;;14.13;9.13;;;16.80;99.90;;;;;;4861387;29;20049;-85
2022/07/30 02:56:08;;;;;;;10.65;8.65;;;16.80;99.90;;;;;;4858428;29;20046;-85
2022/07/30 02:58:36;;;;;;;11.73;8.55;;;16.80;99.90;;;;;;4859340;29;20041;-85
2022/07/30 03:01:03;;;;;;;13.25;8.70;;;16.80;99.90;;;;;;4851663;29;20084;-85
2022/07/30 03:03:30;;;;;;;11.05;8.75;;;16.80;99.90;;;;;;4849631;29;20398;-84
2022/07/30 03:05:57;;;;;;;12.80;7.97;;;16.80;99.90;;;;;;4860806;29;20081;-85
2022/07/30 03:08:23;;;;;;;12.57;9.02;;;16.80;99.90;;;;;;4848491;29;20053;-85
2022/07/30 03:10:51;;;;;;;13.52;8.63;;;16.70;99.90;;;;;;4845806;29;20050;-85
2022/07/30 03:13:19;;;;;;;10.48;8.75;;;16.70;99.90;;;;;;4857501;29;20494;-85
2022/07/30 03:15:48;;;;;;;12.90;9.10;;;16.70;99.90;;;;;;4851718;29;20102;-85
2022/07/30 03:18:16;;;;;;;12.43;9.02;;;16.60;99.90;;;;;;4861236;29;20104;-85
2022/07/30 03:20:46;;;;;;;9.75;8.02;;;16.60;99.90;;;;;;4853041;29;20396;-85
2022/07/30 03:23:14;;;;;;;11.88;8.48;;;16.60;99.90;;;;;;4860508;29;20056;-86
2022/07/30 03:25:41;;;;;;;10.32;8.00;;;16.60;99.90;;;;;;4860128;29;20080;-85
2022/07/30 03:28:08;;;;;;;10.35;8.25;;;16.50;99.90;;;;;;4853342;29;20054;-85
2022/07/30 03:30:33;;;;;;;10.98;8.20;;;16.50;99.90;;;;;;4845930;29;20041;-85
2022/07/30 03:33:00;;;;;;;8.85;7.05;;;16.50;99.90;;;;;;4876324;29;20124;-85
2022/07/30 03:35:26;;;;;;;9.32;6.78;;;16.50;99.90;;;;;;4846015;29;20085;-85
2022/07/30 03:37:53;;;;;;;9.38;7.70;;;16.40;99.90;;;;;;4844818;29;20102;-85
2022/07/30 03:40:19;;;;;;;9.60;7.65;;;16.40;99.90;;;;;;4860723;29;20057;-85
2022/07/30 03:42:46;;;;;;;8.52;7.40;;;16.40;99.90;;;;;;4861032;29;20113;-85
2022/07/30 03:45:14;;;;;;;10.25;6.43;;;16.40;99.90;;;;;;4860793;29;20055;-85
2022/07/30 03:47:41;;;;;;;9.18;6.63;;;16.40;99.90;;;;;;4843018;29;20497;-85
2022/07/30 03:50:08;;;;;;;9.35;7.13;;;16.40;99.90;;;;;;4852874;29;20051;-85
2022/07/30 03:52:37;;;;;;;9.30;6.97;;;16.30;99.90;;;;;;4860278;29;20053;-85
2022/07/30 03:55:05;;;;;;;7.50;6.28;;;16.30;99.90;;;;;;4859459;29;20049;-85
2022/07/30 03:57:31;;;;;;;9.18;6.50;;;16.30;99.90;;;;;;4851713;29;20077;-85
2022/07/30 03:59:57;;;;;;;7.45;6.10;;;16.30;99.90;;;;;;4844433;29;20485;-85
2022/07/30 04:02:23;;;;;;;7.40;6.60;;;16.30;99.90;;;;;;4860445;29;20667;-85
2022/07/30 04:04:48;;;;;;;8.52;6.40;;;16.30;99.90;;;;;;4860660;29;20100;-85
2022/07/30 04:07:14;;;;;;;8.40;6.57;;;16.30;99.90;;;;;;4860829;29;20049;-85
2022/07/30 04:09:40;;;;;;;9.55;6.25;;;16.30;99.90;;;;;;4858518;29;20049;-85
2022/07/30 04:12:06;;;;;;;7.20;6.03;;;16.20;99.90;;;;;;4874531;29;20494;-85
2022/07/30 04:14:43;;;;;;;7.85;6.43;;;16.20;99.90;;;;;;4847115;29;20380;-85
2022/07/30 04:17:15;;;;;;;7.60;6.38;;;16.20;99.90;;;;;;4860956;29;20069;-85
2022/07/30 04:19:46;;;;;;;9.55;6.63;;;16.20;99.90;;;;;;4858070;29;20057;-85
2022/07/30 04:22:15;;;;;;;8.88;6.40;;;16.20;99.90;;;;;;4844656;29;20546;-85
2022/07/30 04:24:42;;;;;;;9.80;7.05;;;16.20;99.90;;;;;;4860582;29;20052;-85
2022/07/30 04:27:09;;;;;;;9.43;6.65;;;16.20;99.90;;;;;;4857916;29;20037;-85
2022/07/30 04:29:35;;;;;;;11.50;6.85;;;16.20;99.90;;;;;;4860427;29;20113;-85
2022/07/30 04:32:00;;;;;;;12.95;6.72;;;16.20;99.90;;;;;;4860497;29;20049;-85
2022/07/30 04:34:26;;;;;;;11.57;7.18;;;16.20;99.90;;;;;;4852772;29;20559;-86
2022/07/30 04:36:52;;;;;;;10.82;6.78;;;16.20;99.90;;;;;;4842471;29;20045;-86
2022/07/30 04:39:19;;;;;;;12.05;6.85;;;16.30;99.90;;;;;;4859785;29;20137;-86
2022/07/30 04:41:44;;;;;;;9.73;6.85;;;16.30;99.90;;;;;;4857064;29;20041;-86
2022/07/30 04:44:10;;;;;;;11.05;6.70;;;16.30;99.90;;;;;;4845213;29;20097;-86
2022/07/30 04:46:36;;;;;;;12.77;7.00;;;16.30;99.90;;;;;;4845103;29;20495;-85
2022/07/30 04:49:02;;;;;;;12.93;7.35;;;16.40;99.90;;;;;;4863954;29;20049;-86
2022/07/30 04:51:32;;;;;;;11.55;6.90;;;16.40;99.90;;;;;;4845310;29;20106;-85
2022/07/30 04:53:59;;;;;;;12.65;7.07;;;16.40;99.90;;;;;;4857067;29;20521;-86
2022/07/30 04:56:27;;;;;;;10.25;7.22;;;16.50;99.90;;;;;;4863098;29;20137;-86
2022/07/30 04:58:54;;;;;;;10.38;6.85;;;16.50;99.90;;;;;;4876321;29;20056;-85
2022/07/30 05:01:29;;;;;;;12.73;6.47;;;16.50;99.90;;;;;;4847559;29;20041;-86
2022/07/30 05:03:56;;;;;;;12.82;7.30;;;16.50;99.90;;;;;;4864867;29;20394;-86
2022/07/30 05:06:24;;;;;;;12.32;6.75;;;16.60;99.90;;;;;;4856134;29;20557;-85
2022/07/30 05:08:50;;;;;;;9.45;7.25;;;16.60;99.90;;;;;;4854340;29;20134;-85
2022/07/30 05:11:15;;;;;;;11.30;7.22;;;16.60;99.90;;;;;;4860083;29;20033;-85
2022/07/30 05:13:47;;;;;;;10.95;6.78;;;16.60;99.90;;;;;;4857985;29;20044;-85
2022/07/30 05:16:13;;;;;;;12.55;6.97;;;16.70;99.90;;;;;;4848152;29;20042;-86
2022/07/30 05:18:39;;;;;;;8.88;7.10;;;16.70;99.90;;;;;;4862931;29;20049;-86
2022/07/30 05:21:05;;;;;;;11.30;6.70;;;16.70;99.90;;;;;;4848756;29;20041;-86
2022/07/30 05:23:31;;;;;;;13.55;7.20;;;16.70;99.90;;;;;;4863824;29;20080;-86
2022/07/30 05:25:57;;;;;;;11.40;7.88;;;16.80;99.90;;;;;;4831119;29;20076;-86
2022/07/30 05:28:25;;;;;;;9.90;7.25;;;16.80;99.90;;;;;;4849201;29;20459;-86
2022/07/30 05:30:52;;;;;;;16.38;8.60;;;17.00;99.90;;;;;;4859009;29;20041;-85
2022/07/30 05:33:18;;;;;;;12.43;7.47;;;17.00;99.90;;;;;;4841996;29;20046;-85
2022/07/30 05:35:44;;;;;;;14.95;8.05;;;17.00;99.90;;;;;;4846164;29;20045;-85
2022/07/30 05:38:10;;;;;;;13.18;8.15;;;17.00;99.90;;;;;;4861523;29;20110;-85
2022/07/30 05:40:35;;;;;;;13.40;9.02;;;17.10;99.90;;;;;;4861356;29;20050;-85
2022/07/30 05:43:01;;;;;;;13.95;9.63;;;17.10;99.90;;;;;;4860534;29;20045;-85
2022/07/30 05:45:27;;;;;;;14.98;9.55;;;17.20;99.90;;;;;;4842217;29;20087;-85
2022/07/30 05:47:52;;;;;;;16.67;8.55;;;17.20;99.90;;;;;;4852659;29;20073;-86
2022/07/30 05:50:18;;;;;;;17.58;9.00;;;17.20;99.90;;;;;;4833237;29;20403;-86
2022/07/30 05:52:44;;;;;;;14.18;8.27;;;17.30;99.90;;;;;;4863195;29;20045;-86
2022/07/30 05:55:10;;;;;;;14.88;8.30;;;17.30;99.90;;;;;;4844969;29;20045;-85
2022/07/30 05:57:35;;;;;;;11.40;7.80;;;17.30;99.90;;;;;;4829414;29;20046;-85
2022/07/30 06:00:04;;;;;;;14.90;8.00;;;17.40;99.90;;;;;;4860788;29;20042;-86
2022/07/30 06:02:30;;;;;;;19.08;8.15;;;17.40;99.90;;;;;;4879806;29;20487;-86
2022/07/30 06:04:56;;;;;;;17.42;8.32;;;17.50;99.90;;;;;;4849532;29;20142;-86
2022/07/30 06:07:21;;;;;;;15.63;8.80;;;17.50;99.90;;;;;;4855489;29;20048;-84
2022/07/30 06:09:47;;;;;;;16.08;8.68;;;17.60;99.90;;;;;;4866033;29;20061;-85
2022/07/30 06:12:13;;;;;;;16.60;8.75;;;17.60;99.90;;;;;;4873565;29;20129;-86
2022/07/30 06:14:39;;;;;;;15.30;8.77;;;17.60;99.90;;;;;;4843529;29;20044;-85
2022/07/30 06:17:04;;;;;;;16.30;9.38;;;17.70;99.90;;;;;;4869643;29;20114;-85
2022/07/30 06:19:30;;;;;;;15.35;9.30;;;17.80;99.90;;;;;;4876982;29;20114;-86
2022/07/30 06:21:56;;;;;;;14.70;9.60;;;17.80;99.90;;;;;;4865192;29;20383;-85
2022/07/30 06:24:22;;;;;;;18.23;10.15;;;17.90;99.90;;;;;;4853533;29;20101;-85
2022/07/30 06:26:47;;;;;;;20.48;11.13;;;17.90;99.90;;;;;;4843866;29;20041;-86
2022/07/30 06:29:13;;;;;;;21.80;11.25;;;18.00;99.90;;;;;;4863108;29;20423;-85
2022/07/30 06:31:40;;;;;;;22.25;11.50;;;18.00;99.90;;;;;;4832627;29;20049;-86
2022/07/30 06:34:06;;;;;;;25.05;11.27;;;18.10;99.90;;;;;;4836466;29;20053;-87
2022/07/30 06:36:31;;;;;;;19.15;11.40;;;18.20;99.90;;;;;;4862379;29;20045;-85
2022/07/30 06:38:57;;;;;;;21.83;11.35;;;18.20;99.90;;;;;;4841713;29;20054;-85
2022/07/30 06:41:23;;;;;;;19.50;11.60;;;18.30;99.90;;;;;;4845572;29;20050;-86
2022/07/30 06:43:49;;;;;;;22.20;11.52;;;18.30;99.90;;;;;;4828647;29;20041;-85
2022/07/30 06:46:15;;;;;;;20.48;11.35;;;18.50;99.90;;;;;;4879026;29;20483;-85
2022/07/30 06:48:41;;;;;;;21.58;10.23;;;18.60;99.90;;;;;;4859638;29;20057;-87
2022/07/30 06:51:07;;;;;;;16.63;9.48;;;18.80;99.90;;;;;;4861445;29;20042;-86
2022/07/30 06:53:33;;;;;;;19.08;10.82;;;19.00;99.90;;;;;;4862505;29;20054;-85
2022/07/30 06:55:59;;;;;;;22.17;11.25;;;19.10;99.90;;;;;;4847407;29;20109;-85
2022/07/30 06:58:24;;;;;;;23.42;10.68;;;19.40;99.90;;;;;;4877516;29;20053;-84
2022/07/30 07:00:50;;;;;;;17.98;9.90;;;19.80;99.90;;;;;;4843486;29;20143;-85
2022/07/30 07:03:16;;;;;;;18.38;10.30;;;20.00;99.90;;;;;;4846023;29;20081;-86
2022/07/30 07:05:41;;;;;;;20.50;9.80;;;20.00;99.90;;;;;;4842925;29;20045;-85
2022/07/30 07:08:07;;;;;;;19.58;8.85;;;19.90;99.90;;;;;;4860191;29;20045;-84
2022/07/30 07:10:33;;;;;;;19.30;7.85;;;19.80;99.90;;;;;;4837145;29;20046;-85
2022/07/30 07:12:59;;;;;;;13.82;6.45;;;19.70;99.90;;;;;;4837732;29;20050;-84
2022/07/30 07:15:25;;;;;;;12.98;5.95;;;19.60;99.90;;;;;;4831134;29;20085;-85
2022/07/30 07:17:51;;;;;;;14.13;5.53;;;19.60;99.90;;;;;;4850710;29;20142;-85
2022/07/30 07:20:17;;;;;;;11.68;4.97;;;19.60;99.90;;;;;;4844385;29;20482;-85
2022/07/30 07:22:43;;;;;;;10.93;4.85;;;19.60;99.90;;;;;;4846008;29;20107;-85
2022/07/30 07:25:09;;;;;;;14.55;5.93;;;19.70;99.90;;;;;;4846016;29;20065;-85
2022/07/30 07:27:36;;;;;;;13.40;6.55;;;19.80;99.90;;;;;;4860064;29;20041;-85
2022/07/30 07:30:03;;;;;;;15.85;5.82;;;20.00;99.90;;;;;;4854250;29;20049;-85
2022/07/30 07:32:29;;;;;;;13.65;6.38;;;20.30;99.90;;;;;;4844288;29;20052;-85
2022/07/30 07:34:54;;;;;;;17.75;6.47;;;20.60;99.90;;;;;;4845437;29;20049;-84
2022/07/30 07:37:20;;;;;;;8.98;4.45;;;20.80;99.90;;;;;;4855297;29;20448;-85
2022/07/30 07:39:46;;;;;;;8.45;4.13;;;21.20;99.90;;;;;;4855211;29;20062;-85
2022/07/30 07:42:12;;;;;;;9.07;3.97;;;21.50;99.90;;;;;;4857968;29;20709;-85
2022/07/30 07:44:37;;;;;;;13.20;4.07;;;21.70;99.90;;;;;;4842714;29;20402;-85
2022/07/30 07:47:03;;;;;;;18.33;4.57;;;21.70;99.90;;;;;;4844338;29;20041;-85
2022/07/30 07:49:29;;;;;;;13.95;5.30;;;21.60;99.90;;;;;;4857997;29;20049;-86
2022/07/30 07:51:55;;;;;;;9.95;4.20;;;21.50;99.90;;;;;;4837527;29;20046;-86
2022/07/30 07:54:21;;;;;;;11.30;4.65;;;21.20;99.90;;;;;;4838291;29;20057;-85
2022/07/30 07:56:47;;;;;;;10.65;4.75;;;20.90;99.90;;;;;;4855169;29;20049;-86
2022/07/30 07:59:13;;;;;;;12.27;5.38;;;21.00;99.90;;;;;;4876536;29;20128;-85
2022/07/30 08:01:39;;;;;;;13.27;4.82;;;21.30;99.90;;;;;;4835384;29;20038;-85
2022/07/30 08:04:05;;;;;;;9.52;3.90;;;21.50;99.90;;;;;;4845444;29;20402;-85
2022/07/30 08:06:30;;;;;;;14.00;3.80;;;21.50;99.90;;;;;;4818317;29;20129;-86
2022/07/30 08:08:56;;;;;;;10.05;3.03;;;21.50;99.90;;;;;;4834165;29;20216;-86
2022/07/30 08:11:22;;;;;;;8.90;3.22;;;21.80;99.90;;;;;;4830028;29;20048;-85
2022/07/30 08:13:47;;;;;;;7.78;3.17;;;21.90;99.90;;;;;;4853341;29;20033;-84
2022/07/30 08:16:14;;;;;;;5.15;2.63;;;22.20;99.90;;;;;;4838521;29;20478;-85
2022/07/30 08:18:40;;;;;;;7.00;2.90;;;22.40;99.90;;;;;;4847407;29;20072;-84
2022/07/30 08:21:07;;;;;;;10.15;3.55;;;22.40;99.90;;;;;;4859562;29;20076;-84
2022/07/30 08:23:33;;;;;;;8.73;2.85;;;22.20;99.90;;;;;;4860033;29;20045;-86
2022/07/30 08:25:59;;;;;;;6.85;2.92;;;22.00;99.90;;;;;;4860459;29;20052;-85
2022/07/30 08:28:25;;;;;;;8.38;2.80;;;22.00;99.90;;;;;;4848179;29;20052;-84
2022/07/30 08:30:51;;;;;;;9.98;3.20;;;22.20;99.90;;;;;;4845946;29;20051;-88
2022/07/30 08:33:17;;;;;;;6.72;3.00;;;22.20;99.90;;;;;;4859647;29;20072;-87
2022/07/30 08:35:43;;;;;;;10.15;3.03;;;22.10;99.90;;;;;;4850924;29;20109;-87
2022/07/30 08:38:08;;;;;;;7.30;2.85;;;22.00;99.90;;;;;;4844634;29;20076;-86
2022/07/30 08:40:35;;;;;;;6.18;2.95;;;22.10;99.90;;;;;;4843286;29;20041;-86
2022/07/30 08:43:06;;;;;;;9.48;2.85;;;22.10;99.90;;;;;;4858866;29;20052;-85
2022/07/30 08:45:32;;;;;;;6.35;1.92;;;22.30;99.90;;;;;;4857310;29;20041;-87
2022/07/30 08:48:00;;;;;;;6.38;2.65;;;22.40;99.90;;;;;;4836530;29;20034;-88
2022/07/30 08:50:26;;;;;;;5.32;2.35;;;22.50;99.90;;;;;;4851270;29;20057;-85
2022/07/30 08:52:54;;;;;;;8.65;2.60;;;22.70;99.90;;;;;;4849056;29;20057;-84
2022/07/30 08:55:24;;;;;;;4.85;2.80;;;22.80;99.90;;;;;;4856634;29;20053;-86
2022/07/30 08:57:50;;;;;;;9.15;2.50;;;23.00;99.90;;;;;;4845368;29;20050;-85
2022/07/30 09:00:17;;;;;;;10.50;2.25;;;23.10;99.90;;;;;;4860555;29;20106;-89
2022/07/30 09:02:43;;;;;;;5.75;2.55;;;23.20;99.90;;;;;;4860252;29;20482;-85
2022/07/30 09:05:10;;;;;;;7.82;2.80;;;23.20;99.90;;;;;;4843513;29;20077;-85
2022/07/30 09:07:37;;;;;;;6.82;2.28;;;23.30;99.90;;;;;;4854929;29;20091;-86
2022/07/30 09:10:04;;;;;;;18.00;2.75;;;23.30;99.90;;;;;;4829266;29;20132;-87
2022/07/30 09:12:34;;;;;;;10.73;3.60;;;23.40;99.90;;;;;;4837888;29;20080;-86
2022/07/30 09:15:06;;;;;;;7.15;3.22;;;23.50;99.90;;;;;;4839005;29;20101;-85
2022/07/30 09:17:59;;;;;;;6.70;3.08;;;23.50;99.90;;;;;;4852301;29;20045;-86
2022/07/30 09:20:28;;;;;;;10.02;3.30;;;23.60;99.80;;;;;;4856440;29;20076;-85
2022/07/30 09:22:59;;;;;;;8.25;4.05;;;23.70;99.90;;;;;;4848188;29;20049;-85
2022/07/30 09:25:45;;;;;;;9.13;3.17;;;23.70;99.90;;;;;;4842090;29;20038;-86
2022/07/30 09:28:11;;;;;;;;;;;23.70;99.90;;;;;;4835243;29;20398;-85
2022/07/30 09:30:54;;;;;;;8.15;2.92;;;23.60;99.00;;;;;;4855940;29;20011;-85
2022/07/30 09:33:41;;;;;;;9.30;2.90;;;23.50;99.90;;;;;;4833661;29;20053;-85
2022/07/30 09:36:09;;;;;;;5.60;2.97;;;23.40;99.90;;;;;;4860541;29;20391;-86
2022/07/30 09:38:46;;;;;;;6.82;2.83;;;23.20;99.90;;;;;;4851780;29;20061;-84
2022/07/30 09:41:13;;;;;;;6.22;2.67;;;23.10;99.90;;;;;;4855567;29;20057;-85
2022/07/30 09:43:42;;;;;;;5.75;2.70;;;23.00;99.90;;;;;;4848741;29;20053;-84
2022/07/30 09:46:08;;;;;;;9.07;2.95;;;22.90;99.90;;;;;;4843282;29;20403;-85
2022/07/30 09:48:34;;;;;;;6.88;2.97;;;23.00;99.90;;;;;;4856427;29;20363;-85
2022/07/30 09:51:00;;;;;;;5.55;2.10;;;23.00;99.90;;;;;;4854340;29;20052;-85
2022/07/30 09:53:26;;;;;;;6.60;2.55;;;23.10;99.90;;;;;;4847193;29;20549;-85
2022/07/30 09:55:52;;;;;;;6.03;2.63;;;23.10;99.90;;;;;;4843278;29;20073;-85
2022/07/30 09:58:18;;;;;;;8.80;2.70;;;23.20;99.90;;;;;;4847373;29;20084;-85
2022/07/30 10:00:44;;;;;;;8.98;2.42;;;23.20;99.80;;;;;;4845279;29;20050;-84
2022/07/30 10:03:25;;;;;;;4.78;2.20;;;23.20;99.90;;;;;;4861103;29;20056;-86
2022/07/30 10:05:59;;;;;;;4.45;2.40;;;23.20;98.60;;;;;;4853879;29;20113;-85
2022/07/30 10:08:57;;;;;;;6.80;3.05;;;23.20;99.20;;;;;;4859085;29;20057;-85
2022/07/30 10:11:25;;;;;;;6.10;3.00;;;23.10;98.30;;;;;;4823620;29;20057;-86
2022/07/30 10:13:54;;;;;;;4.95;2.40;;;23.00;98.90;;;;;;4830276;29;20125;-85
2022/07/30 10:16:20;;;;;;;6.00;2.33;;;22.90;98.70;;;;;;4845953;29;20081;-85
2022/07/30 10:18:47;;;;;;;12.90;2.63;;;22.80;98.10;;;;;;4858798;29;20091;-84
2022/07/30 10:21:14;;;;;;;3.38;1.98;;;22.80;98.60;;;;;;4840034;29;20042;-86
2022/07/30 10:23:40;;;;;;;5.28;2.15;;;22.80;98.90;;;;;;4833166;29;20045;-85
2022/07/30 10:26:07;;;;;;;4.82;2.00;;;22.80;98.40;;;;;;4860145;29;20049;-85
2022/07/30 10:28:33;;;;;;;4.30;1.98;;;22.80;97.80;;;;;;4858201;29;20044;-85
2022/07/30 10:30:59;;;;;;;11.02;2.40;;;22.80;97.80;;;;;;4840460;29;20050;-85
2022/07/30 10:33:28;;;;;;;8.38;2.38;;;22.70;97.60;;;;;;4852255;29;20509;-85
2022/07/30 10:35:54;;;;;;;11.95;2.72;;;22.70;97.50;;;;;;4852677;29;20045;-86
2022/07/30 10:38:22;;;;;;;10.00;2.50;;;22.70;97.60;;;;;;4850806;29;20065;-85
2022/07/30 10:40:54;;;;;;;12.43;2.90;;;22.70;97.60;;;;;;4846742;29;20529;-84
2022/07/30 10:43:45;;;;;;;14.30;2.28;;;22.70;97.70;;;;;;4838754;29;20053;-86
2022/07/30 10:46:15;;;;;;;5.20;2.15;;;22.80;97.80;;;;;;4836480;29;20541;-86
2022/07/30 10:48:41;;;;;;;9.00;2.08;;;22.80;98.00;;;;;;4856290;29;20128;-86
2022/07/30 10:51:07;;;;;;;7.72;2.10;;;22.80;97.50;;;;;;4856398;29;20517;-86
2022/07/30 10:53:45;;;;;;;5.70;2.08;;;22.80;97.10;;;;;;4856610;29;20049;-86
2022/07/30 10:56:21;;;;;;;5.57;2.05;;;22.80;96.70;;;;;;4858755;29;20138;-85
2022/07/30 10:58:56;;;;;;;;;;;22.80;96.80;;;;;;4852486;29;20084;-85
2022/07/30 11:01:22;;;;;;;25.10;2.90;;;22.70;96.70;;;;;;4856120;29;20007;-86
2022/07/30 11:04:16;;;;;;;10.60;2.35;;;22.60;97.40;;;;;;4841906;29;20181;-85
2022/07/30 11:06:42;;;;;;;10.77;3.03;;;22.60;96.30;;;;;;4861070;29;20071;-85
2022/07/30 11:09:40;;;;;;;8.93;2.15;;;22.60;97.00;;;;;;4847112;29;20045;-85
2022/07/30 11:12:08;;;;;;;5.68;2.28;;;22.70;95.10;;;;;;4837845;29;20053;-86
2022/07/30 11:14:45;;;;;;;4.68;1.80;;;22.60;96.40;;;;;;4855752;29;20077;-85
2022/07/30 11:17:16;;;;;;;3.85;1.98;;;22.60;96.20;;;;;;4858057;29;20049;-85
2022/07/30 11:20:01;;;;;;;7.47;2.20;;;22.70;95.00;;;;;;4843911;29;20061;-85
2022/07/30 11:22:30;;;;;;;4.60;2.47;;;22.70;94.80;;;;;;4886986;29;20049;-85
2022/07/30 11:24:56;;;;;;;8.68;2.25;;;22.70;95.30;;;;;;4844859;29;20042;-86
2022/07/30 11:27:47;;;;;;;9.43;2.30;;;22.70;95.40;;;;;;4862433;29;20539;-86
2022/07/30 11:30:16;;;;;;;5.00;2.00;;;22.70;94.60;;;;;;4834097;29;20109;-85
2022/07/30 11:32:42;;;;;;;3.95;1.70;;;22.70;95.50;;;;;;4863886;29;20041;-86
2022/07/30 11:35:15;;;;;;;10.82;2.33;;;22.80;96.00;;;;;;4847521;29;20054;-85
2022/07/30 11:38:07;;;;;;;13.57;2.17;;;22.90;95.30;;;;;;4876650;29;20021;-84
2022/07/30 11:40:36;;;;;;;3.20;1.85;;;22.90;95.20;;;;;;4881639;29;20046;-84
2022/07/30 11:43:17;;;;;;;5.47;2.05;;;22.90;94.20;;;;;;4874752;29;20049;-85
2022/07/30 11:45:48;;;;;;;7.78;2.33;;;22.90;95.20;;;;;;4861261;29;20041;-85
2022/07/30 11:48:17;;;;;;;6.47;2.17;;;23.00;95.60;;;;;;4858351;29;20042;-85
2022/07/30 11:50:44;;;;;;;5.60;2.10;;;23.00;95.20;;;;;;4837143;29;20046;-85
2022/07/30 11:53:15;;;;;;;7.00;2.50;;;23.00;95.30;;;;;;4846480;29;20052;-85
2022/07/30 11:55:43;;;;;;;8.48;2.00;;;23.10;95.40;;;;;;4854282;29;20041;-85
2022/07/30 11:58:33;;;;;;;5.15;2.22;;;23.10;95.20;;;;;;4853609;29;20049;-85
2022/07/30 12:01:02;;;;;;;5.53;2.13;;;23.10;94.30;;;;;;4850066;29;20057;-85
2022/07/30 12:03:31;;;;;;;4.68;1.77;;;23.10;95.20;;;;;;4853414;29;20109;-86
2022/07/30 12:06:12;;;;;;;6.28;2.03;;;23.20;94.80;;;;;;4844532;29;20042;-85
2022/07/30 12:08:44;;;;;;;4.20;1.73;;;23.20;94.20;;;;;;4855823;29;20098;-85
2022/07/30 12:11:10;;;;;;;4.85;1.80;;;23.20;93.90;;;;;;4846558;29;20524;-87
2022/07/30 12:13:37;;;;;;;5.53;1.90;;;23.20;93.60;;;;;;4846361;29;20447;-86
2022/07/30 12:16:10;;;;;;;4.60;1.50;;;23.20;93.80;;;;;;4861304;29;20081;-85
2022/07/30 12:18:36;;;;;;;3.15;1.83;;;23.30;93.60;;;;;;4861249;29;20160;-86
2022/07/30 12:21:07;;;;;;;5.82;2.08;;;23.40;93.10;;;;;;4840774;29;20114;-85
2022/07/30 12:23:34;;;;;;;5.55;1.90;;;23.50;93.00;;;;;;4856039;29;20033;-85
2022/07/30 12:26:00;;;;;;;3.33;1.40;;;23.60;92.90;;;;;;4848041;29;20053;-86
2022/07/30 12:28:28;;;;;;;4.70;1.60;;;23.70;92.50;;;;;;4839228;29;20034;-85
2022/07/30 12:30:55;;;;;;;9.80;1.50;;;23.80;91.60;;;;;;4849507;29;20046;-85
2022/07/30 12:33:21;;;;;;;4.82;1.60;;;23.90;90.30;;;;;;4858771;29;20085;-86
2022/07/30 12:35:50;;;;;;;3.80;1.20;;;24.00;87.10;;;;;;4859299;29;20058;-84
2022/07/30 12:38:18;;;;;;;4.45;1.10;;;24.00;82.40;;;;;;4860211;29;20145;-85
2022/07/30 12:40:59;;;;;;;12.27;1.58;;;24.10;77.80;;;;;;4861012;29;20045;-85
2022/07/30 12:43:42;;;;;;;3.55;1.30;;;24.20;74.00;;;;;;4854464;29;20052;-86
2022/07/30 12:46:07;;;;;;;5.57;1.60;;;24.20;72.80;;;;;;4850061;29;20046;-85
2022/07/30 12:48:33;;;;;;;3.60;1.15;;;24.20;76.10;;;;;;4854672;29;20042;-85